sensor_id;sensor_type;location;lat;lon;timestamp;pressure;altitude;pressure_sealevel;temperature;humidity
74778;BME280;63298;53.164;8.610;2022-12-18T00:03:47;103139.53;;;-4.59;78.29
74778;BME280;63298;53.164;8.610;2022-12-18T00:06:13;103141.22;;;-4.58;78.48
74778;BME280;63298;53.164;8.610;2022-12-18T00:08:40;103129.59;;;-4.58;77.98
74778;BME280;63298;53.164;8.610;2022-12-18T00:11:06;103138.53;;;-4.58;77.79
74778;BME280;63298;53.164;8.610;2022-12-18T00:13:32;103130.56;;;-4.59;77.81
74778;BME280;63298;53.164;8.610;2022-12-18T00:16:06;103137.78;;;-4.60;77.67
74778;BME280;63298;53.164;8.610;2022-12-18T00:18:31;103148.63;;;-4.61;77.56
74778;BME280;63298;53.164;8.610;2022-12-18T00:21:01;103149.66;;;-4.64;77.92
74778;BME280;63298;53.164;8.610;2022-12-18T00:23:27;103138.16;;;-4.67;77.30
74778;BME280;63298;53.164;8.610;2022-12-18T00:25:53;103139.13;;;-4.68;78.01
74778;BME280;63298;53.164;8.610;2022-12-18T00:28:18;103133.72;;;-4.68;78.21
74778;BME280;63298;53.164;8.610;2022-12-18T00:30:43;103129.41;;;-4.71;77.57
74778;BME280;63298;53.164;8.610;2022-12-18T00:33:09;103123.31;;;-4.74;77.43
74778;BME280;63298;53.164;8.610;2022-12-18T00:35:34;103131.47;;;-4.76;77.40
74778;BME280;63298;53.164;8.610;2022-12-18T00:37:59;103130.59;;;-4.76;77.70
74778;BME280;63298;53.164;8.610;2022-12-18T00:40:25;103127.13;;;-4.78;78.10
74778;BME280;63298;53.164;8.610;2022-12-18T00:42:50;103105.66;;;-4.80;77.85
74778;BME280;63298;53.164;8.610;2022-12-18T00:45:15;103116.56;;;-4.83;77.54
74778;BME280;63298;53.164;8.610;2022-12-18T00:47:41;103112.06;;;-4.83;77.63
74778;BME280;63298;53.164;8.610;2022-12-18T00:50:06;103118.44;;;-4.84;77.31
74778;BME280;63298;53.164;8.610;2022-12-18T00:52:32;103122.06;;;-4.85;78.24
74778;BME280;63298;53.164;8.610;2022-12-18T00:54:57;103126.66;;;-4.87;78.28
74778;BME280;63298;53.164;8.610;2022-12-18T00:57:22;103133.94;;;-4.89;77.40
74778;BME280;63298;53.164;8.610;2022-12-18T00:59:48;103136.84;;;-4.93;77.91
74778;BME280;63298;53.164;8.610;2022-12-18T01:02:13;103143.09;;;-4.93;77.35
74778;BME280;63298;53.164;8.610;2022-12-18T01:04:38;103144.16;;;-4.95;77.39
74778;BME280;63298;53.164;8.610;2022-12-18T01:07:04;103150.53;;;-4.98;77.47
74778;BME280;63298;53.164;8.610;2022-12-18T01:09:29;103149.84;;;-5.01;77.56
74778;BME280;63298;53.164;8.610;2022-12-18T01:11:54;103150.09;;;-5.06;77.47
74778;BME280;63298;53.164;8.610;2022-12-18T01:14:20;103151.91;;;-5.06;77.59
74778;BME280;63298;53.164;8.610;2022-12-18T01:16:45;103157.34;;;-5.08;78.08
74778;BME280;63298;53.164;8.610;2022-12-18T01:19:11;103168.22;;;-5.09;77.65
74778;BME280;63298;53.164;8.610;2022-12-18T01:21:36;103169.09;;;-5.09;78.00
74778;BME280;63298;53.164;8.610;2022-12-18T01:24:01;103169.09;;;-5.09;78.14
74778;BME280;63298;53.164;8.610;2022-12-18T01:26:27;103166.41;;;-5.09;78.06
74778;BME280;63298;53.164;8.610;2022-12-18T01:28:54;103171.78;;;-5.09;77.44
74778;BME280;63298;53.164;8.610;2022-12-18T01:31:23;103158.31;;;-5.09;77.76
74778;BME280;63298;53.164;8.610;2022-12-18T01:33:50;103170.81;;;-5.08;77.73
74778;BME280;63298;53.164;8.610;2022-12-18T01:38:42;103176.34;;;-5.11;77.77
74778;BME280;63298;53.164;8.610;2022-12-18T01:41:08;103172.84;;;-5.13;77.77
74778;BME280;63298;53.164;8.610;2022-12-18T01:44:00;103186.47;;;-5.16;77.78
74778;BME280;63298;53.164;8.610;2022-12-18T01:46:26;103184.66;;;-5.15;77.86
74778;BME280;63298;53.164;8.610;2022-12-18T01:48:58;103175.66;;;-5.14;77.47
74778;BME280;63298;53.164;8.610;2022-12-18T01:51:25;103176.53;;;-5.14;77.83
74778;BME280;63298;53.164;8.610;2022-12-18T01:53:51;103172.03;;;-5.13;77.43
74778;BME280;63298;53.164;8.610;2022-12-18T01:56:21;103164.94;;;-5.16;77.71
74778;BME280;63298;53.164;8.610;2022-12-18T02:01:20;103171.22;;;-5.15;77.31
74778;BME280;63298;53.164;8.610;2022-12-18T02:03:46;103174.78;;;-5.15;77.29
74778;BME280;63298;53.164;8.610;2022-12-18T02:06:16;103180.16;;;-5.15;77.89
74778;BME280;63298;53.164;8.610;2022-12-18T02:14:07;103170.41;;;-5.17;77.45
74778;BME280;63298;53.164;8.610;2022-12-18T02:22:38;103182.50;;;-5.26;77.49
74778;BME280;63298;53.164;8.610;2022-12-18T02:27:49;103170.00;;;-5.27;77.76
74778;BME280;63298;53.164;8.610;2022-12-18T02:30:16;103164.84;;;-5.32;77.73
74778;BME280;63298;53.164;8.610;2022-12-18T02:32:46;103173.88;;;-5.33;78.18
74778;BME280;63298;53.164;8.610;2022-12-18T02:35:20;103172.94;;;-5.32;77.74
74778;BME280;63298;53.164;8.610;2022-12-18T02:37:47;103177.28;;;-5.29;77.84
74778;BME280;63298;53.164;8.610;2022-12-18T02:40:14;103166.53;;;-5.29;77.23
74778;BME280;63298;53.164;8.610;2022-12-18T02:42:41;103166.53;;;-5.29;77.83
74778;BME280;63298;53.164;8.610;2022-12-18T02:45:06;103157.59;;;-5.30;77.55
74778;BME280;63298;53.164;8.610;2022-12-18T02:47:35;103164.78;;;-5.30;77.81
74778;BME280;63298;53.164;8.610;2022-12-18T02:50:10;103160.28;;;-5.30;77.97
74778;BME280;63298;53.164;8.610;2022-12-18T02:58:17;103162.03;;;-5.29;77.65
74778;BME280;63298;53.164;8.610;2022-12-18T03:00:56;103165.44;;;-5.25;77.82
74778;BME280;63298;53.164;8.610;2022-12-18T03:03:29;103169.06;;;-5.26;77.15
74778;BME280;63298;53.164;8.610;2022-12-18T03:06:05;103170.88;;;-5.27;77.84
74778;BME280;63298;53.164;8.610;2022-12-18T03:08:37;103173.66;;;-5.28;77.95
74778;BME280;63298;53.164;8.610;2022-12-18T03:11:07;103163.84;;;-5.29;77.47
74778;BME280;63298;53.164;8.610;2022-12-18T03:13:46;103155.91;;;-5.32;77.80
74778;BME280;63298;53.164;8.610;2022-12-18T03:16:26;103163.09;;;-5.33;77.60
74778;BME280;63298;53.164;8.610;2022-12-18T03:19:02;103170.34;;;-5.33;77.54
74778;BME280;63298;53.164;8.610;2022-12-18T03:21:34;103167.78;;;-5.36;77.42
74778;BME280;63298;53.164;8.610;2022-12-18T03:24:05;103169.75;;;-5.40;76.95
74778;BME280;63298;53.164;8.610;2022-12-18T03:26:32;103168.06;;;-5.42;77.75
74778;BME280;63298;53.164;8.610;2022-12-18T03:29:03;103165.50;;;-5.44;77.67
74778;BME280;63298;53.164;8.610;2022-12-18T03:31:31;103167.38;;;-5.46;77.76
74778;BME280;63298;53.164;8.610;2022-12-18T03:34:00;103166.50;;;-5.46;77.70
74778;BME280;63298;53.164;8.610;2022-12-18T03:36:30;103166.44;;;-5.45;77.78
74778;BME280;63298;53.164;8.610;2022-12-18T03:38:59;103161.22;;;-5.48;77.74
74778;BME280;63298;53.164;8.610;2022-12-18T03:42:13;103171.09;;;-5.48;77.48
74778;BME280;63298;53.164;8.610;2022-12-18T03:44:44;103180.03;;;-5.48;77.40
74778;BME280;63298;53.164;8.610;2022-12-18T03:47:19;103184.31;;;-5.44;77.79
74778;BME280;63298;53.164;8.610;2022-12-18T03:49:53;103189.75;;;-5.45;77.22
74778;BME280;63298;53.164;8.610;2022-12-18T03:52:38;103167.59;;;-5.50;77.49
74778;BME280;63298;53.164;8.610;2022-12-18T03:55:07;103176.53;;;-5.50;77.50
74778;BME280;63298;53.164;8.610;2022-12-18T03:57:33;103172.09;;;-5.51;77.56
74778;BME280;63298;53.164;8.610;2022-12-18T04:00:28;103170.28;;;-5.50;77.64
74778;BME280;63298;53.164;8.610;2022-12-18T04:02:56;103157.78;;;-5.51;77.40
74778;BME280;63298;53.164;8.610;2022-12-18T04:05:23;103153.34;;;-5.52;77.75
74778;BME280;63298;53.164;8.610;2022-12-18T04:07:51;103156.84;;;-5.50;77.63
74778;BME280;63298;53.164;8.610;2022-12-18T04:10:17;103168.53;;;-5.51;77.58
74778;BME280;63298;53.164;8.610;2022-12-18T04:12:42;103160.41;;;-5.50;77.60
74778;BME280;63298;53.164;8.610;2022-12-18T04:15:08;103158.59;;;-5.49;77.13
74778;BME280;63298;53.164;8.610;2022-12-18T04:17:34;103153.28;;;-5.51;77.29
74778;BME280;63298;53.164;8.610;2022-12-18T04:19:59;103150.53;;;-5.49;77.93
74778;BME280;63298;53.164;8.610;2022-12-18T04:22:25;103142.59;;;-5.52;77.26
74778;BME280;63298;53.164;8.610;2022-12-18T04:24:50;103145.16;;;-5.49;77.38
74778;BME280;63298;53.164;8.610;2022-12-18T04:27:15;103138.84;;;-5.48;78.21
74778;BME280;63298;53.164;8.610;2022-12-18T04:29:41;103144.84;;;-5.43;77.87
74778;BME280;63298;53.164;8.610;2022-12-18T04:32:07;103156.47;;;-5.43;77.43
74778;BME280;63298;53.164;8.610;2022-12-18T04:34:32;103157.31;;;-5.42;77.98
74778;BME280;63298;53.164;8.610;2022-12-18T04:36:58;103156.56;;;-5.44;77.67
74778;BME280;63298;53.164;8.610;2022-12-18T04:39:23;103153.94;;;-5.46;77.78
74778;BME280;63298;53.164;8.610;2022-12-18T04:41:49;103159.25;;;-5.44;77.80
74778;BME280;63298;53.164;8.610;2022-12-18T04:44:14;103162.88;;;-5.45;77.63
74778;BME280;63298;53.164;8.610;2022-12-18T04:46:39;103160.19;;;-5.45;77.72
74778;BME280;63298;53.164;8.610;2022-12-18T04:49:05;103158.38;;;-5.45;77.38
74778;BME280;63298;53.164;8.610;2022-12-18T04:51:30;103157.31;;;-5.42;77.61
74778;BME280;63298;53.164;8.610;2022-12-18T04:53:56;103160.81;;;-5.40;78.10
74778;BME280;63298;53.164;8.610;2022-12-18T04:56:21;103164.31;;;-5.38;77.41
74778;BME280;63298;53.164;8.610;2022-12-18T04:58:47;103169.75;;;-5.40;77.20
74778;BME280;63298;53.164;8.610;2022-12-18T05:01:16;103181.38;;;-5.39;77.60
74778;BME280;63298;53.164;8.610;2022-12-18T05:03:42;103184.06;;;-5.39;77.71
74778;BME280;63298;53.164;8.610;2022-12-18T05:06:08;103174.09;;;-5.37;77.65
74778;BME280;63298;53.164;8.610;2022-12-18T05:08:33;103184.84;;;-5.37;77.64
74778;BME280;63298;53.164;8.610;2022-12-18T05:11:07;103179.66;;;-5.40;77.48
74778;BME280;63298;53.164;8.610;2022-12-18T05:13:33;103194.84;;;-5.39;77.59
74778;BME280;63298;53.164;8.610;2022-12-18T05:15:59;103187.78;;;-5.42;77.48
74778;BME280;63298;53.164;8.610;2022-12-18T05:18:25;103194.19;;;-5.44;77.73
74778;BME280;63298;53.164;8.610;2022-12-18T05:20:53;103195.78;;;-5.40;77.67
74778;BME280;63298;53.164;8.610;2022-12-18T05:23:20;103205.66;;;-5.41;77.79
74778;BME280;63298;53.164;8.610;2022-12-18T05:25:53;103205.72;;;-5.42;77.74
74778;BME280;63298;53.164;8.610;2022-12-18T05:28:20;103211.91;;;-5.40;77.74
74778;BME280;63298;53.164;8.610;2022-12-18T05:30:54;103203.03;;;-5.42;77.15
74778;BME280;63298;53.164;8.610;2022-12-18T05:33:20;103207.41;;;-5.40;77.41
74778;BME280;63298;53.164;8.610;2022-12-18T05:35:57;103203.03;;;-5.42;77.38
74778;BME280;63298;53.164;8.610;2022-12-18T05:38:24;103210.16;;;-5.41;77.82
74778;BME280;63298;53.164;8.610;2022-12-18T05:40:51;103213.00;;;-5.44;77.30
74778;BME280;63298;53.164;8.610;2022-12-18T05:43:17;103209.44;;;-5.45;77.74
74778;BME280;63298;53.164;8.610;2022-12-18T05:45:43;103210.44;;;-5.47;77.64
74778;BME280;63298;53.164;8.610;2022-12-18T05:48:08;103202.63;;;-5.52;77.68
74778;BME280;63298;53.164;8.610;2022-12-18T05:50:38;103204.53;;;-5.54;77.52
74778;BME280;63298;53.164;8.610;2022-12-18T05:53:05;103201.09;;;-5.57;77.58
74778;BME280;63298;53.164;8.610;2022-12-18T05:55:34;103200.25;;;-5.58;77.50
74778;BME280;63298;53.164;8.610;2022-12-18T05:58:00;103198.41;;;-5.57;77.39
74778;BME280;63298;53.164;8.610;2022-12-18T06:00:28;103200.31;;;-5.59;77.77
74778;BME280;63298;53.164;8.610;2022-12-18T06:02:56;103196.69;;;-5.58;77.17
74778;BME280;63298;53.164;8.610;2022-12-18T06:05:21;103201.19;;;-5.59;77.49
74778;BME280;63298;53.164;8.610;2022-12-18T06:07:46;103202.19;;;-5.61;77.47
74778;BME280;63298;53.164;8.610;2022-12-18T06:10:12;103205.03;;;-5.64;77.44
74778;BME280;63298;53.164;8.610;2022-12-18T06:12:37;103210.47;;;-5.66;77.74
74778;BME280;63298;53.164;8.610;2022-12-18T06:15:03;103215.84;;;-5.66;77.58
74778;BME280;63298;53.164;8.610;2022-12-18T06:17:30;103217.53;;;-5.63;78.02
74778;BME280;63298;53.164;8.610;2022-12-18T06:19:55;103211.44;;;-5.67;77.57
74778;BME280;63298;53.164;8.610;2022-12-18T06:22:21;103211.53;;;-5.69;77.52
74778;BME280;63298;53.164;8.610;2022-12-18T06:24:46;103208.84;;;-5.69;77.96
74778;BME280;63298;53.164;8.610;2022-12-18T06:27:12;103214.97;;;-5.67;77.94
74778;BME280;63298;53.164;8.610;2022-12-18T06:29:37;103216.09;;;-5.71;77.13
74778;BME280;63298;53.164;8.610;2022-12-18T06:32:03;103213.41;;;-5.71;77.31
74778;BME280;63298;53.164;8.610;2022-12-18T06:34:31;103208.97;;;-5.72;77.87
74778;BME280;63298;53.164;8.610;2022-12-18T06:36:57;103208.91;;;-5.70;77.94
74778;BME280;63298;53.164;8.610;2022-12-18T06:39:23;103198.16;;;-5.70;77.79
74778;BME280;63298;53.164;8.610;2022-12-18T06:41:48;103192.84;;;-5.72;77.47
74778;BME280;63298;53.164;8.610;2022-12-18T06:44:13;103201.88;;;-5.73;77.81
74778;BME280;63298;53.164;8.610;2022-12-18T06:46:38;103205.41;;;-5.72;77.17
74778;BME280;63298;53.164;8.610;2022-12-18T06:49:04;103209.13;;;-5.75;78.05
74778;BME280;63298;53.164;8.610;2022-12-18T06:51:29;103219.72;;;-5.72;77.78
74778;BME280;63298;53.164;8.610;2022-12-18T06:53:54;103224.22;;;-5.72;77.29
74778;BME280;63298;53.164;8.610;2022-12-18T06:56:20;103223.38;;;-5.73;77.99
74778;BME280;63298;53.164;8.610;2022-12-18T06:58:45;103225.91;;;-5.70;78.05
74778;BME280;63298;53.164;8.610;2022-12-18T07:01:11;103231.28;;;-5.70;77.03
74778;BME280;63298;53.164;8.610;2022-12-18T07:03:39;103234.84;;;-5.69;77.68
74778;BME280;63298;53.164;8.610;2022-12-18T07:06:05;103235.78;;;-5.70;77.51
74778;BME280;63298;53.164;8.610;2022-12-18T07:08:31;103238.47;;;-5.70;77.51
74778;BME280;63298;53.164;8.610;2022-12-18T07:10:57;103238.47;;;-5.70;77.40
74778;BME280;63298;53.164;8.610;2022-12-18T07:13:22;103237.53;;;-5.69;77.66
74778;BME280;63298;53.164;8.610;2022-12-18T07:15:48;103241.16;;;-5.70;77.47
74778;BME280;63298;53.164;8.610;2022-12-18T07:18:13;103237.66;;;-5.72;77.94
74778;BME280;63298;53.164;8.610;2022-12-18T07:20:38;103246.53;;;-5.70;77.70
74778;BME280;63298;53.164;8.610;2022-12-18T07:23:04;103245.53;;;-5.68;77.71
74778;BME280;63298;53.164;8.610;2022-12-18T07:25:34;103245.44;;;-5.66;77.21
74778;BME280;63298;53.164;8.610;2022-12-18T07:27:59;103236.44;;;-5.65;77.90
74778;BME280;63298;53.164;8.610;2022-12-18T07:30:24;103230.19;;;-5.66;77.74
74778;BME280;63298;53.164;8.610;2022-12-18T07:32:50;103237.38;;;-5.66;77.25
74778;BME280;63298;53.164;8.610;2022-12-18T07:35:15;103241.16;;;-5.70;77.75
74778;BME280;63298;53.164;8.610;2022-12-18T07:37:40;103234.91;;;-5.71;77.73
74778;BME280;63298;53.164;8.610;2022-12-18T07:40:06;103224.31;;;-5.74;77.33
74778;BME280;63298;53.164;8.610;2022-12-18T07:42:32;103217.19;;;-5.75;77.34
74778;BME280;63298;53.164;8.610;2022-12-18T07:44:58;103218.19;;;-5.77;77.61
74778;BME280;63298;53.164;8.610;2022-12-18T07:47:23;103213.69;;;-5.77;77.43
74778;BME280;63298;53.164;8.610;2022-12-18T07:49:49;103219.06;;;-5.77;77.67
74778;BME280;63298;53.164;8.610;2022-12-18T07:52:14;103215.44;;;-5.76;77.66
74778;BME280;63298;53.164;8.610;2022-12-18T07:54:40;103220.03;;;-5.78;77.58
74778;BME280;63298;53.164;8.610;2022-12-18T07:57:05;103225.53;;;-5.81;77.50
74778;BME280;63298;53.164;8.610;2022-12-18T07:59:31;103227.22;;;-5.78;77.78
74778;BME280;63298;53.164;8.610;2022-12-18T08:01:56;103227.94;;;-5.75;77.89
74778;BME280;63298;53.164;8.610;2022-12-18T08:04:22;103221.63;;;-5.74;78.18
74778;BME280;63298;53.164;8.610;2022-12-18T08:06:47;103210.88;;;-5.74;77.40
74778;BME280;63298;53.164;8.610;2022-12-18T08:09:12;103213.41;;;-5.71;77.65
74778;BME280;63298;53.164;8.610;2022-12-18T08:11:38;103216.97;;;-5.70;78.00
74778;BME280;63298;53.164;8.610;2022-12-18T08:14:03;103219.41;;;-5.66;77.69
74778;BME280;63298;53.164;8.610;2022-12-18T08:16:30;103213.09;;;-5.64;78.17
74778;BME280;63298;53.164;8.610;2022-12-18T08:18:55;103233.56;;;-5.62;77.73
74778;BME280;63298;53.164;8.610;2022-12-18T08:21:26;103222.75;;;-5.60;77.58
74778;BME280;63298;53.164;8.610;2022-12-18T08:23:53;103223.41;;;-5.55;77.97
74778;BME280;63298;53.164;8.610;2022-12-18T08:26:19;103235.03;;;-5.55;77.65
74778;BME280;63298;53.164;8.610;2022-12-18T08:28:45;103230.38;;;-5.51;77.73
74778;BME280;63298;53.164;8.610;2022-12-18T08:31:10;103219.50;;;-5.48;77.71
74778;BME280;63298;53.164;8.610;2022-12-18T08:33:37;103218.38;;;-5.44;77.18
74778;BME280;63298;53.164;8.610;2022-12-18T08:36:03;103213.66;;;-5.39;77.64
74778;BME280;63298;53.164;8.610;2022-12-18T08:38:29;103226.88;;;-5.35;77.85
74778;BME280;63298;53.164;8.610;2022-12-18T08:41:02;103224.97;;;-5.33;77.43
74778;BME280;63298;53.164;8.610;2022-12-18T08:43:28;103222.06;;;-5.28;77.81
74778;BME280;63298;53.164;8.610;2022-12-18T08:45:53;103212.81;;;-5.23;78.04
74778;BME280;63298;53.164;8.610;2022-12-18T08:48:18;103201.84;;;-5.18;77.34
74778;BME280;63298;53.164;8.610;2022-12-18T08:50:53;103208.69;;;-5.12;77.61
74778;BME280;63298;53.164;8.610;2022-12-18T08:53:18;103213.00;;;-5.08;77.60
74778;BME280;63298;53.164;8.610;2022-12-18T08:55:44;103207.47;;;-5.05;77.22
74778;BME280;63298;53.164;8.610;2022-12-18T08:58:09;103200.09;;;-5.02;77.19
74778;BME280;63298;53.164;8.610;2022-12-18T09:00:34;103197.25;;;-4.99;77.76
74778;BME280;63298;53.164;8.610;2022-12-18T09:03:00;103192.59;;;-4.95;77.77
74778;BME280;63298;53.164;8.610;2022-12-18T09:05:25;103178.97;;;-4.92;77.51
74778;BME280;63298;53.164;8.610;2022-12-18T09:07:50;103195.66;;;-4.86;77.73
74778;BME280;63298;53.164;8.610;2022-12-18T09:10:16;103194.41;;;-4.78;77.47
74778;BME280;63298;53.164;8.610;2022-12-18T09:12:41;103203.97;;;-4.73;77.80
74778;BME280;63298;53.164;8.610;2022-12-18T09:15:07;103198.34;;;-4.68;77.75
74778;BME280;63298;53.164;8.610;2022-12-18T09:17:33;103213.16;;;-4.60;77.67
74778;BME280;63298;53.164;8.610;2022-12-18T09:19:58;103220.81;;;-4.52;77.66
74778;BME280;63298;53.164;8.610;2022-12-18T09:22:24;103232.22;;;-4.47;77.72
74778;BME280;63298;53.164;8.610;2022-12-18T09:24:49;103231.09;;;-4.43;78.17
74778;BME280;63298;53.164;8.610;2022-12-18T09:27:17;103228.16;;;-4.39;78.19
74778;BME280;63298;53.164;8.610;2022-12-18T09:29:42;103231.41;;;-4.32;77.67
74778;BME280;63298;53.164;8.610;2022-12-18T09:32:08;103240.09;;;-4.27;78.36
74778;BME280;63298;53.164;8.610;2022-12-18T09:34:33;103235.34;;;-4.22;77.99
74778;BME280;63298;53.164;8.610;2022-12-18T09:36:58;103232.31;;;-4.16;78.19
74778;BME280;63298;53.164;8.610;2022-12-18T09:39:25;103225.88;;;-4.13;77.33
74778;BME280;63298;53.164;8.610;2022-12-18T09:41:56;103232.94;;;-4.11;77.58
74778;BME280;63298;53.164;8.610;2022-12-18T09:44:30;103233.56;;;-4.06;77.21
74778;BME280;63298;53.164;8.610;2022-12-18T09:49:27;103233.25;;;-4.00;77.33
74778;BME280;63298;53.164;8.610;2022-12-18T09:52:02;103241.16;;;-3.97;77.50
74778;BME280;63298;53.164;8.610;2022-12-18T09:54:37;103240.19;;;-3.96;77.92
74778;BME280;63298;53.164;8.610;2022-12-18T09:57:03;103237.25;;;-3.91;77.22
74778;BME280;63298;53.164;8.610;2022-12-18T09:59:35;103233.69;;;-3.92;77.26
74778;BME280;63298;53.164;8.610;2022-12-18T10:02:18;103230.81;;;-3.88;77.57
74778;BME280;63298;53.164;8.610;2022-12-18T10:04:52;103232.47;;;-3.86;77.63
74778;BME280;63298;53.164;8.610;2022-12-18T10:19:07;103223.63;;;-3.72;77.93
74778;BME280;63298;53.164;8.610;2022-12-18T10:24:32;103220.59;;;-3.66;77.34
74778;BME280;63298;53.164;8.610;2022-12-18T10:27:11;103217.53;;;-3.60;77.94
74778;BME280;63298;53.164;8.610;2022-12-18T10:29:37;103206.66;;;-3.59;77.42
74778;BME280;63298;53.164;8.610;2022-12-18T10:32:03;103206.50;;;-3.56;77.07
74778;BME280;63298;53.164;8.610;2022-12-18T10:34:28;103200.91;;;-3.53;77.43
74778;BME280;63298;53.164;8.610;2022-12-18T10:36:54;103202.66;;;-3.52;77.04
74778;BME280;63298;53.164;8.610;2022-12-18T10:39:24;103198.81;;;-3.47;77.28
74778;BME280;63298;53.164;8.610;2022-12-18T10:41:49;103202.47;;;-3.49;77.35
74778;BME280;63298;53.164;8.610;2022-12-18T10:44:22;103203.88;;;-3.41;77.47
74778;BME280;63298;53.164;8.610;2022-12-18T10:46:50;103198.09;;;-3.35;77.31
74778;BME280;63298;53.164;8.610;2022-12-18T10:49:27;103190.88;;;-3.35;77.86
74778;BME280;63298;53.164;8.610;2022-12-18T10:52:05;103199.41;;;-3.27;77.67
74778;BME280;63298;53.164;8.610;2022-12-18T10:54:32;103196.38;;;-3.21;77.12
74778;BME280;63298;53.164;8.610;2022-12-18T10:57:30;103176.13;;;-3.14;76.98
74778;BME280;63298;53.164;8.610;2022-12-18T10:59:58;103165.94;;;-3.09;76.78
74778;BME280;63298;53.164;8.610;2022-12-18T11:02:33;103161.31;;;-3.07;77.60
74778;BME280;63298;53.164;8.610;2022-12-18T11:05:00;103149.28;;;-3.01;77.24
74778;BME280;63298;53.164;8.610;2022-12-18T11:07:25;103146.47;;;-2.99;76.90
74778;BME280;63298;53.164;8.610;2022-12-18T11:10:15;103151.72;;;-2.96;77.00
74778;BME280;63298;53.164;8.610;2022-12-18T11:12:40;103137.06;;;-2.92;77.22
74778;BME280;63298;53.164;8.610;2022-12-18T11:15:13;103132.41;;;-2.90;77.49
74778;BME280;63298;53.164;8.610;2022-12-18T11:17:40;103125.91;;;-2.86;77.14
74778;BME280;63298;53.164;8.610;2022-12-18T11:20:21;103140.94;;;-2.82;77.30
74778;BME280;63298;53.164;8.610;2022-12-18T11:22:57;103146.94;;;-2.77;76.72
74778;BME280;63298;53.164;8.610;2022-12-18T11:25:23;103143.00;;;-2.72;77.07
74778;BME280;63298;53.164;8.610;2022-12-18T11:27:55;103133.81;;;-2.69;76.83
74778;BME280;63298;53.164;8.610;2022-12-18T11:32:50;103129.56;;;-2.59;77.56
74778;BME280;63298;53.164;8.610;2022-12-18T11:35:48;103129.97;;;-2.51;77.01
74778;BME280;63298;53.164;8.610;2022-12-18T11:38:26;103106.81;;;-2.41;77.47
74778;BME280;63298;53.164;8.610;2022-12-18T11:43:27;103092.59;;;-2.30;76.63
74778;BME280;63298;53.164;8.610;2022-12-18T11:46:00;103090.41;;;-2.24;77.46
74778;BME280;63298;53.164;8.610;2022-12-18T11:48:33;103079.19;;;-2.17;76.97
74778;BME280;63298;53.164;8.610;2022-12-18T11:51:01;103083.03;;;-2.07;76.93
74778;BME280;63298;53.164;8.610;2022-12-18T11:53:30;103073.63;;;-2.02;76.76
74778;BME280;63298;53.164;8.610;2022-12-18T12:06:57;103066.59;;;-1.78;76.55
74778;BME280;63298;53.164;8.610;2022-12-18T12:15:06;103063.69;;;-1.75;76.24
74778;BME280;63298;53.164;8.610;2022-12-18T12:17:53;103066.50;;;-1.76;76.29
74778;BME280;63298;53.164;8.610;2022-12-18T12:20:48;103066.19;;;-1.71;76.45
74778;BME280;63298;53.164;8.610;2022-12-18T12:26:12;103048.59;;;-1.64;76.47
74778;BME280;63298;53.164;8.610;2022-12-18T12:28:50;103048.50;;;-1.63;75.82
74778;BME280;63298;53.164;8.610;2022-12-18T12:39:33;103030.31;;;-1.61;75.96
74778;BME280;63298;53.164;8.610;2022-12-18T12:42:01;103027.81;;;-1.64;75.85
74778;BME280;63298;53.164;8.610;2022-12-18T12:44:30;103017.88;;;-1.63;76.06
74778;BME280;63298;53.164;8.610;2022-12-18T12:47:07;103013.50;;;-1.66;76.10
74778;BME280;63298;53.164;8.610;2022-12-18T12:49:37;103007.91;;;-1.63;76.05
74778;BME280;63298;53.164;8.610;2022-12-18T12:52:12;103011.59;;;-1.64;76.00
74778;BME280;63298;53.164;8.610;2022-12-18T12:54:39;103022.19;;;-1.61;76.37
74778;BME280;63298;53.164;8.610;2022-12-18T12:57:12;103013.97;;;-1.59;76.23
74778;BME280;63298;53.164;8.610;2022-12-18T13:00:01;103015.16;;;-1.63;76.36
74778;BME280;63298;53.164;8.610;2022-12-18T13:05:30;103003.25;;;-1.61;76.31
74778;BME280;63298;53.164;8.610;2022-12-18T13:08:05;103006.81;;;-1.60;76.70
74778;BME280;63298;53.164;8.610;2022-12-18T13:10:41;103005.94;;;-1.61;76.11
74778;BME280;63298;53.164;8.610;2022-12-18T13:15:42;102990.38;;;-1.57;75.89
74778;BME280;63298;53.164;8.610;2022-12-18T13:21:02;102992.34;;;-1.59;76.26
74778;BME280;63298;53.164;8.610;2022-12-18T13:23:35;102966.78;;;-1.55;76.41
74778;BME280;63298;53.164;8.610;2022-12-18T13:31:09;102965.06;;;-1.56;75.91
74778;BME280;63298;53.164;8.610;2022-12-18T13:33:42;102974.81;;;-1.54;76.20
74778;BME280;63298;53.164;8.610;2022-12-18T13:38:43;102964.72;;;-1.52;76.15
74778;BME280;63298;53.164;8.610;2022-12-18T13:43:43;102954.22;;;-1.56;76.21
74778;BME280;63298;53.164;8.610;2022-12-18T13:46:56;102949.69;;;-1.56;75.85
74778;BME280;63298;53.164;8.610;2022-12-18T13:52:01;102933.44;;;-1.56;76.15
74778;BME280;63298;53.164;8.610;2022-12-18T13:57:01;102932.59;;;-1.56;76.15
74778;BME280;63298;53.164;8.610;2022-12-18T13:59:34;102935.19;;;-1.55;75.82
74778;BME280;63298;53.164;8.610;2022-12-18T14:02:07;102931.53;;;-1.54;76.01
74778;BME280;63298;53.164;8.610;2022-12-18T14:04:35;102940.38;;;-1.52;76.08
74778;BME280;63298;53.164;8.610;2022-12-18T14:07:04;102930.53;;;-1.53;76.22
74778;BME280;63298;53.164;8.610;2022-12-18T14:09:35;102931.28;;;-1.51;75.98
74778;BME280;63298;53.164;8.610;2022-12-18T14:12:02;102934.00;;;-1.51;75.48
74778;BME280;63298;53.164;8.610;2022-12-18T14:14:28;102927.81;;;-1.53;75.92
74778;BME280;63298;53.164;8.610;2022-12-18T14:16:53;102932.06;;;-1.49;75.99
74778;BME280;63298;53.164;8.610;2022-12-18T14:19:19;102931.84;;;-1.46;75.87
74778;BME280;63298;53.164;8.610;2022-12-18T14:21:48;102927.41;;;-1.47;75.56
74778;BME280;63298;53.164;8.610;2022-12-18T14:24:19;102911.16;;;-1.47;75.72
74778;BME280;63298;53.164;8.610;2022-12-18T14:26:47;102903.81;;;-1.45;75.86
74778;BME280;63298;53.164;8.610;2022-12-18T14:29:30;102904.78;;;-1.46;75.37
74778;BME280;63298;53.164;8.610;2022-12-18T14:32:18;102913.00;;;-1.47;75.70
74778;BME280;63298;53.164;8.610;2022-12-18T14:34:48;102915.06;;;-1.51;76.02
74778;BME280;63298;53.164;8.610;2022-12-18T14:37:20;102901.84;;;-1.55;75.82
74778;BME280;63298;53.164;8.610;2022-12-18T14:40:00;102890.81;;;-1.52;75.28